createdAt,value
2019-03-24T00:01:25.573Z,69.10
2019-03-24T00:03:53.507Z,63.78
2019-03-24T00:06:21.777Z,71.82
2019-03-24T00:08:49.397Z,69.70
2019-03-24T00:11:16.655Z,69.65
2019-03-24T00:13:43.845Z,72.17
2019-03-24T00:16:13.070Z,78.40
2019-03-24T00:18:42.521Z,73.10
2019-03-24T00:21:09.725Z,79.72
2019-03-24T00:23:44.403Z,73.57
2019-03-24T00:26:14.010Z,74.60
2019-03-24T00:28:41.291Z,75.83
2019-03-24T00:31:08.342Z,80.30
2019-03-24T00:33:41.451Z,77.92
2019-03-24T00:36:08.501Z,81.55
2019-03-24T00:38:35.538Z,76.60
2019-03-24T00:41:02.971Z,79.35
2019-03-24T00:43:30.015Z,86.02
2019-03-24T00:45:57.151Z,86.50
2019-03-24T00:48:24.190Z,76.28
2019-03-24T00:50:52.320Z,81.02
2019-03-24T00:53:19.625Z,82.33
2019-03-24T00:55:46.683Z,89.75
2019-03-24T00:58:13.719Z,86.30
2019-03-24T01:00:40.759Z,81.97
2019-03-24T01:03:07.819Z,93.75
2019-03-24T01:05:34.863Z,90.07
2019-03-24T01:08:01.913Z,87.12
2019-03-24T01:10:29.037Z,86.82
2019-03-24T01:12:56.428Z,87.95
2019-03-24T01:15:23.786Z,85.00
2019-03-24T01:17:50.837Z,85.03
2019-03-24T01:20:17.879Z,85.62
2019-03-24T01:22:44.932Z,90.97
2019-03-24T01:25:12.227Z,86.57
2019-03-24T01:27:39.277Z,89.62
2019-03-24T01:30:06.312Z,91.02
2019-03-24T01:32:33.726Z,90.75
2019-03-24T01:35:00.768Z,94.83
2019-03-24T01:37:28.087Z,96.15
2019-03-24T01:39:55.395Z,95.97
2019-03-24T01:42:22.449Z,95.97
2019-03-24T01:44:49.782Z,92.50
2019-03-24T01:47:17.135Z,90.53
2019-03-24T01:49:44.508Z,98.80
2019-03-24T01:52:11.565Z,96.53
2019-03-24T01:54:38.608Z,91.85
2019-03-24T01:57:05.665Z,100.72
2019-03-24T01:59:32.705Z,97.42
2019-03-24T02:01:59.767Z,93.15
2019-03-24T02:04:27.087Z,99.17
2019-03-24T02:06:54.459Z,102.20
2019-03-24T02:09:21.504Z,103.67
2019-03-24T02:11:50.794Z,100.10
2019-03-24T02:14:17.287Z,107.92
2019-03-24T02:16:44.322Z,109.17
2019-03-24T02:19:11.634Z,101.72
2019-03-24T02:21:38.923Z,105.92
2019-03-24T02:24:06.218Z,106.83
2019-03-24T02:26:33.328Z,111.30
2019-03-24T02:29:00.385Z,112.88
2019-03-24T02:31:27.429Z,107.27
2019-03-24T02:33:54.733Z,110.30
2019-03-24T02:36:22.092Z,105.43
2019-03-24T02:38:49.327Z,118.10
2019-03-24T02:41:16.367Z,110.65
2019-03-24T02:43:43.420Z,110.03
2019-03-24T02:46:23.509Z,109.05
2019-03-24T02:48:39.480Z,116.40
2019-03-24T02:51:06.790Z,110.10
2019-03-24T02:53:33.826Z,108.85
2019-03-24T02:56:00.864Z,113.85
2019-03-24T02:58:28.394Z,112.70
2019-03-24T03:00:55.685Z,116.17
2019-03-24T03:03:23.034Z,110.12
2019-03-24T03:05:50.420Z,113.28
2019-03-24T03:08:17.437Z,109.72
2019-03-24T03:10:44.487Z,115.80
2019-03-24T03:13:11.539Z,119.82
2019-03-24T03:15:38.583Z,113.45
2019-03-24T03:18:05.902Z,117.20
2019-03-24T03:20:32.949Z,117.22
2019-03-24T03:23:00.323Z,116.88
2019-03-24T03:25:27.597Z,115.88
2019-03-24T03:27:54.642Z,121.37
2019-03-24T03:30:21.702Z,119.08
2019-03-24T03:32:49.018Z,118.60
2019-03-24T03:35:16.370Z,122.00
2019-03-24T03:37:43.414Z,113.83
2019-03-24T03:40:10.470Z,114.92
2019-03-24T03:42:37.515Z,123.45
2019-03-24T03:45:04.829Z,120.95
2019-03-24T03:47:32.234Z,123.15
2019-03-24T03:49:59.562Z,115.12
2019-03-24T03:52:26.930Z,124.00
2019-03-24T03:54:53.980Z,114.92
2019-03-24T03:57:21.338Z,124.67
2019-03-24T03:59:48.632Z,118.47
2019-03-24T04:02:16.065Z,116.97
2019-03-24T04:04:43.372Z,119.25
2019-03-24T04:07:10.756Z,121.60
2019-03-24T04:09:37.814Z,122.10
2019-03-24T04:12:04.869Z,113.28
2019-03-24T04:14:32.204Z,122.72
2019-03-24T04:17:07.038Z,121.82
2019-03-24T04:19:28.244Z,120.70
2019-03-24T04:21:55.549Z,120.70
2019-03-24T04:24:22.604Z,120.20
2019-03-24T04:26:49.641Z,128.60
2019-03-24T04:29:17.053Z,117.22
2019-03-24T04:31:44.403Z,117.75
2019-03-24T04:34:11.755Z,127.32
2019-03-24T04:36:39.116Z,129.78
2019-03-24T04:39:06.471Z,132.18
2019-03-24T04:41:33.821Z,135.60
2019-03-24T04:44:00.878Z,129.57
2019-03-24T04:46:28.226Z,131.43
2019-03-24T04:48:55.581Z,126.35
2019-03-24T04:51:23.611Z,129.32
2019-03-24T04:53:51.010Z,126.82
2019-03-24T04:56:18.364Z,121.25
2019-03-24T04:58:45.407Z,138.35
2019-03-24T05:01:12.789Z,129.82
2019-03-24T05:03:39.828Z,130.95
2019-03-24T05:06:07.167Z,130.10
2019-03-24T05:08:34.213Z,133.10
2019-03-24T05:11:01.594Z,132.25
2019-03-24T05:13:28.933Z,136.45
2019-03-24T05:15:56.279Z,128.60
2019-03-24T05:18:23.326Z,133.03
2019-03-24T05:20:50.400Z,130.15
2019-03-24T05:23:17.742Z,132.22
2019-03-24T05:25:44.804Z,126.80
2019-03-24T05:28:11.862Z,123.80
2019-03-24T05:30:40.308Z,123.58
2019-03-24T05:33:07.688Z,122.42
2019-03-24T05:35:35.008Z,121.62
2019-03-24T05:38:03.298Z,123.95
2019-03-24T05:40:30.399Z,119.13
2019-03-24T05:42:58.825Z,114.82
2019-03-24T05:45:26.200Z,115.30
2019-03-24T05:47:53.542Z,111.00
2019-03-24T05:50:20.603Z,103.85
2019-03-24T05:52:47.650Z,104.63
2019-03-24T05:55:15.009Z,106.87
2019-03-24T05:57:42.348Z,98.90
2019-03-24T06:00:09.478Z,104.75
2019-03-24T06:02:36.867Z,99.03
2019-03-24T06:05:04.205Z,100.70
2019-03-24T06:07:31.503Z,95.17
2019-03-24T06:09:58.832Z,93.45
2019-03-24T06:12:26.188Z,95.10
2019-03-24T06:14:53.232Z,92.35
2019-03-24T06:17:20.568Z,93.97
2019-03-24T06:19:47.854Z,94.45
2019-03-24T06:22:15.176Z,89.47
2019-03-24T06:24:42.532Z,88.62
2019-03-24T06:27:09.892Z,92.60
2019-03-24T06:29:37.247Z,94.40
2019-03-24T06:32:04.598Z,90.03
2019-03-24T06:34:31.681Z,87.17
2019-03-24T06:36:58.709Z,86.15
2019-03-24T06:39:26.068Z,86.63
2019-03-24T06:41:53.404Z,87.17
2019-03-24T06:44:20.781Z,82.12
2019-03-24T06:46:48.113Z,86.05
2019-03-24T06:49:15.468Z,84.75
2019-03-24T06:51:42.527Z,86.47
2019-03-24T06:54:09.871Z,85.28
2019-03-24T06:56:36.930Z,90.70
2019-03-24T06:59:04.293Z,88.55
2019-03-24T07:01:31.617Z,85.12
2019-03-24T07:03:58.965Z,85.75
2019-03-24T07:06:26.345Z,87.25
2019-03-24T07:08:53.713Z,87.08
2019-03-24T07:11:21.054Z,83.80
2019-03-24T07:13:48.098Z,82.47
2019-03-24T07:16:15.164Z,91.45
2019-03-24T07:24:01.749Z,83.95
2019-03-24T07:26:34.312Z,86.80
2019-03-24T07:29:02.624Z,84.77
2019-03-24T07:31:30.888Z,81.15
2019-03-24T07:34:01.183Z,83.95
2019-03-24T07:36:29.741Z,79.03
2019-03-24T07:39:02.952Z,85.75
2019-03-24T07:41:31.445Z,82.80
2019-03-24T07:44:01.774Z,81.85
2019-03-24T07:46:30.462Z,79.82
2019-03-24T07:49:05.571Z,77.30
2019-03-24T07:51:37.924Z,80.62
2019-03-24T07:54:06.402Z,78.52
2019-03-24T07:59:11.578Z,78.42
2019-03-24T08:04:31.095Z,77.97
2019-03-24T08:12:26.340Z,78.15
2019-03-24T08:17:43.944Z,75.92
2019-03-24T08:20:13.448Z,75.32
2019-03-24T08:22:45.562Z,76.37
2019-03-24T08:25:13.822Z,79.47
2019-03-24T08:27:44.677Z,83.33
2019-03-24T08:30:21.227Z,74.65
2019-03-24T08:32:48.492Z,76.00
2019-03-24T08:35:15.554Z,73.80
2019-03-24T08:37:46.588Z,78.02
2019-03-24T08:45:43.131Z,73.87
2019-03-24T08:48:15.073Z,73.40
2019-03-24T08:50:50.046Z,76.53
2019-03-24T08:53:18.229Z,73.70
2019-03-24T08:55:55.369Z,74.97
2019-03-24T08:58:22.613Z,76.22
2019-03-24T09:00:56.708Z,75.62
2019-03-24T09:06:05.494Z,74.67
2019-03-24T09:08:36.665Z,75.37
2019-03-24T09:11:17.488Z,74.70
2019-03-24T09:13:44.555Z,73.47
2019-03-24T09:16:11.602Z,76.02
2019-03-24T09:18:39.732Z,75.25
2019-03-24T09:21:06.768Z,80.00
2019-03-24T09:23:34.082Z,69.75
2019-03-24T09:26:01.132Z,71.90
2019-03-24T09:28:28.465Z,70.62
2019-03-24T09:30:55.527Z,75.35
2019-03-24T09:33:22.864Z,76.75
2019-03-24T09:35:50.222Z,72.50
2019-03-24T09:38:17.277Z,73.67
2019-03-24T09:40:44.404Z,71.62
2019-03-24T09:43:11.781Z,70.50
2019-03-24T09:45:39.130Z,71.40
2019-03-24T09:48:06.198Z,65.90
2019-03-24T09:50:33.495Z,68.45
2019-03-24T09:53:00.553Z,71.28
2019-03-24T09:55:27.956Z,68.72
2019-03-24T09:57:55.016Z,68.97
2019-03-24T10:00:22.376Z,70.37
2019-03-24T10:02:49.693Z,70.10
2019-03-24T10:05:17.046Z,69.32
2019-03-24T10:07:44.098Z,74.67
2019-03-24T10:10:11.456Z,77.53
2019-03-24T10:12:38.500Z,68.37
2019-03-24T10:17:40.919Z,69.45
2019-03-24T10:20:08.349Z,69.12
2019-03-24T10:22:35.725Z,71.90
2019-03-24T10:25:02.784Z,71.05
2019-03-24T10:27:29.828Z,68.75
2019-03-24T10:29:57.154Z,66.80
2019-03-24T10:32:24.527Z,63.83
2019-03-24T10:34:51.879Z,64.47
2019-03-24T10:37:19.215Z,63.38
2019-03-24T10:39:46.283Z,68.17
2019-03-24T10:42:13.647Z,67.30
2019-03-24T10:44:40.974Z,69.25
2019-03-24T10:47:08.333Z,64.07
2019-03-24T10:49:35.687Z,62.65
2019-03-24T10:52:02.732Z,62.30
2019-03-24T10:54:29.797Z,59.70
2019-03-24T10:56:57.147Z,64.60
2019-03-24T10:59:24.205Z,60.20
2019-03-24T11:01:51.259Z,62.88
2019-03-24T11:04:18.587Z,65.00
2019-03-24T11:06:46.604Z,62.73
2019-03-24T11:09:14.040Z,62.33
2019-03-24T11:11:41.078Z,57.67
2019-03-24T11:14:08.421Z,64.75
2019-03-24T11:16:35.711Z,58.45
2019-03-24T11:19:03.128Z,58.90
2019-03-24T11:21:30.504Z,62.67
2019-03-24T11:23:57.835Z,60.28
2019-03-24T11:26:25.217Z,62.53
2019-03-24T11:28:52.266Z,56.45
2019-03-24T11:31:20.844Z,60.70
2019-03-24T11:33:48.156Z,55.52
2019-03-24T11:36:15.235Z,59.45
2019-03-24T11:38:42.280Z,53.70
2019-03-24T11:41:09.343Z,56.60
2019-03-24T11:43:36.680Z,56.02
2019-03-24T11:46:05.406Z,50.43
2019-03-24T11:48:33.949Z,50.73
2019-03-24T11:51:01.013Z,56.53
2019-03-24T11:53:28.329Z,52.08
2019-03-24T11:55:55.729Z,52.08
2019-03-24T11:58:22.790Z,50.23
2019-03-24T12:00:50.126Z,50.45
2019-03-24T12:03:17.245Z,47.95
2019-03-24T12:05:44.560Z,52.38
2019-03-24T12:08:11.891Z,55.98
2019-03-24T12:10:38.954Z,52.13
2019-03-24T12:13:06.292Z,51.50
2019-03-24T12:15:33.627Z,54.13
2019-03-24T12:18:00.930Z,58.35
2019-03-24T12:20:29.068Z,57.90
2019-03-24T12:22:56.102Z,55.30
2019-03-24T12:25:23.166Z,61.18
2019-03-24T12:27:50.213Z,56.83
2019-03-24T12:30:17.536Z,63.28
2019-03-24T12:32:44.593Z,60.70
2019-03-24T12:35:11.985Z,61.70
2019-03-24T12:37:39.021Z,66.77
2019-03-24T12:40:06.333Z,60.52
2019-03-24T12:42:33.720Z,61.95
2019-03-24T12:45:01.089Z,61.33
2019-03-24T12:47:28.137Z,58.45
2019-03-24T12:49:55.186Z,60.15
2019-03-24T12:52:22.536Z,60.55
2019-03-24T12:54:49.877Z,62.30
2019-03-24T12:57:17.231Z,61.88
2019-03-24T12:59:44.585Z,57.30
2019-03-24T13:02:11.792Z,55.05
2019-03-24T13:04:39.197Z,57.60
2019-03-24T13:07:06.503Z,55.43
2019-03-24T13:09:33.854Z,57.60
2019-03-24T13:12:00.868Z,60.78
2019-03-24T13:14:30.662Z,59.42
2019-03-24T13:16:57.353Z,56.23
2019-03-24T13:19:40.869Z,55.67
2019-03-24T13:22:14.105Z,55.55
2019-03-24T13:24:50.630Z,59.08
2019-03-24T13:38:16.607Z,60.65
2019-03-24T13:40:50.636Z,63.98
2019-03-24T13:43:17.916Z,59.23
2019-03-24T13:45:57.475Z,60.52
2019-03-24T13:48:24.983Z,62.63
2019-03-24T13:50:52.147Z,63.20
2019-03-24T13:53:22.792Z,63.33
2019-03-24T13:56:01.259Z,66.55
2019-03-24T13:58:28.572Z,69.37
2019-03-24T14:00:55.977Z,62.78
2019-03-24T14:03:23.326Z,66.22
2019-03-24T14:05:50.380Z,64.62
2019-03-24T14:08:17.744Z,68.75
2019-03-24T14:10:45.084Z,68.05
2019-03-24T14:13:12.462Z,63.42
2019-03-24T14:15:39.506Z,61.45
2019-03-24T14:18:06.840Z,66.45
2019-03-24T14:20:42.757Z,62.85
2019-03-24T14:23:03.007Z,65.08
2019-03-24T14:25:31.364Z,65.70
2019-03-24T14:27:58.429Z,64.77
2019-03-24T14:30:25.770Z,65.25
2019-03-24T14:32:53.077Z,64.47
2019-03-24T14:35:20.482Z,73.78
2019-03-24T14:37:47.832Z,68.22
2019-03-24T14:40:14.887Z,64.92
2019-03-24T14:42:42.257Z,66.67
2019-03-24T14:45:09.598Z,64.62
2019-03-24T14:47:36.662Z,57.27
2019-03-24T14:50:03.708Z,62.95
2019-03-24T14:52:30.927Z,59.42
2019-03-24T14:54:58.297Z,57.25
2019-03-24T14:57:25.363Z,59.20
2019-03-24T14:59:52.716Z,59.65
2019-03-24T15:02:20.074Z,60.45
2019-03-24T15:04:47.407Z,60.92
2019-03-24T15:07:14.764Z,62.05
2019-03-24T15:09:42.116Z,60.85
2019-03-24T15:12:09.168Z,59.77
2019-03-24T15:14:36.473Z,59.08
2019-03-24T15:17:03.775Z,66.17
2019-03-24T15:19:32.154Z,64.40
2019-03-24T15:21:59.207Z,59.93
2019-03-24T15:24:26.556Z,58.17
2019-03-24T15:26:53.609Z,58.23
2019-03-24T15:29:20.933Z,61.92
2019-03-24T15:31:48.313Z,61.58
2019-03-24T15:34:15.384Z,64.40
2019-03-24T15:36:42.426Z,60.38
2019-03-24T15:39:09.772Z,63.25
2019-03-24T15:41:37.120Z,63.15
2019-03-24T15:44:04.178Z,64.70
2019-03-24T15:46:31.544Z,62.30
2019-03-24T15:48:58.602Z,63.85
2019-03-24T15:51:25.931Z,78.15
2019-03-24T15:53:53.261Z,82.53
2019-03-24T15:56:20.315Z,89.60
2019-03-24T15:58:47.694Z,83.35
2019-03-24T16:01:14.983Z,83.20
2019-03-24T16:03:42.621Z,86.08
2019-03-24T16:06:09.666Z,79.70
2019-03-24T16:08:37.003Z,85.80
2019-03-24T16:11:04.055Z,87.97
2019-03-24T16:13:31.422Z,85.92
2019-03-24T16:15:58.715Z,87.37
2019-03-24T16:18:25.853Z,85.47
2019-03-24T16:20:53.178Z,78.95
2019-03-24T16:23:20.488Z,79.07
2019-03-24T16:25:47.535Z,79.85
2019-03-24T16:28:14.942Z,78.75
2019-03-24T16:30:41.994Z,77.67
2019-03-24T16:33:09.333Z,80.90
2019-03-24T16:35:36.624Z,78.78
2019-03-24T16:38:03.951Z,71.40
2019-03-24T16:40:31.108Z,74.05
2019-03-24T16:42:58.159Z,69.85
2019-03-24T16:45:25.485Z,74.22
2019-03-24T16:47:52.529Z,74.70
2019-03-24T16:50:19.606Z,75.47
2019-03-24T16:52:46.651Z,76.65
2019-03-24T16:55:13.706Z,74.40
2019-03-24T16:57:41.049Z,77.15
2019-03-24T17:00:08.392Z,73.80
2019-03-24T17:02:35.507Z,67.30
2019-03-24T17:05:02.572Z,72.87
2019-03-24T17:07:29.966Z,77.95
2019-03-24T17:10:00.726Z,74.85
2019-03-24T17:12:28.048Z,73.92
2019-03-24T17:14:55.110Z,72.00
2019-03-24T17:17:22.435Z,74.35
2019-03-24T17:19:49.494Z,73.75
2019-03-24T17:22:16.838Z,68.30
2019-03-24T17:24:43.913Z,75.87
2019-03-24T17:27:10.949Z,73.37
2019-03-24T17:29:38.297Z,72.40
2019-03-24T17:32:05.335Z,75.92
2019-03-24T17:34:32.398Z,79.58
2019-03-24T17:36:59.449Z,82.78
2019-03-24T17:39:26.505Z,80.05
2019-03-24T17:41:53.551Z,88.40
2019-03-24T17:44:20.878Z,79.05
2019-03-24T17:46:48.255Z,72.22
2019-03-24T17:49:15.318Z,71.67
2019-03-24T17:51:42.641Z,73.25
2019-03-24T17:54:09.687Z,67.05
2019-03-24T17:56:36.761Z,71.57
2019-03-24T17:59:03.797Z,79.70
2019-03-24T18:01:31.927Z,67.72
2019-03-24T18:04:00.251Z,73.25
2019-03-24T18:06:27.553Z,79.72
2019-03-24T18:08:55.969Z,72.58
2019-03-24T18:11:24.100Z,70.37
2019-03-24T18:13:51.515Z,71.12
2019-03-24T18:16:18.871Z,67.03
2019-03-24T18:18:45.916Z,75.47
2019-03-24T18:21:12.975Z,69.42
2019-03-24T18:23:40.337Z,67.60
2019-03-24T18:33:55.989Z,71.72
2019-03-24T18:36:23.268Z,68.05
2019-03-24T18:38:50.497Z,68.45
2019-03-24T18:41:17.571Z,70.20
2019-03-24T18:44:01.880Z,71.07
2019-03-24T18:46:31.136Z,72.80
2019-03-24T18:49:08.465Z,66.10
2019-03-24T18:54:12.983Z,74.53
2019-03-24T18:56:40.536Z,65.80
2019-03-24T18:59:09.035Z,67.55
2019-03-24T19:01:41.304Z,69.22
2019-03-24T19:04:10.764Z,61.77
2019-03-24T19:06:38.357Z,69.03
2019-03-24T19:11:59.432Z,65.83
2019-03-24T19:17:11.967Z,71.10
2019-03-24T19:19:39.895Z,71.53
2019-03-24T19:22:10.527Z,76.70
2019-03-24T19:27:05.585Z,123.50
2019-03-24T19:29:35.239Z,79.45
2019-03-24T19:32:03.461Z,74.42
2019-03-24T19:34:31.404Z,72.75
2019-03-24T19:42:19.489Z,151.50
2019-03-24T19:44:46.535Z,95.15
2019-03-24T19:47:14.171Z,92.45
2019-03-24T19:49:45.845Z,117.00
2019-03-24T19:52:17.375Z,120.17
2019-03-24T19:54:45.161Z,121.40
2019-03-24T19:59:55.420Z,78.60
2019-03-24T20:04:58.526Z,76.02
2019-03-24T20:10:12.960Z,69.97
2019-03-24T20:12:42.348Z,88.12
2019-03-24T20:15:10.504Z,87.08
2019-03-24T20:20:12.361Z,97.08
2019-03-24T20:25:14.894Z,73.83
2019-03-24T20:30:23.823Z,99.07
2019-03-24T20:35:28.172Z,67.65
2019-03-24T20:37:55.807Z,68.92
2019-03-24T20:40:32.777Z,64.80
2019-03-24T20:42:59.822Z,65.20
2019-03-24T20:45:27.502Z,70.28
2019-03-24T20:47:54.781Z,70.90
2019-03-24T20:50:22.017Z,63.68
2019-03-24T20:55:34.357Z,63.23
2019-03-24T20:58:01.557Z,60.90
2019-03-24T21:00:32.409Z,63.63
2019-03-24T21:03:03.640Z,75.83
2019-03-24T21:05:49.241Z,64.30
2019-03-24T21:08:16.706Z,63.63
2019-03-24T21:10:43.990Z,58.48
2019-03-24T21:13:15.839Z,59.98
2019-03-24T21:15:55.155Z,60.38
2019-03-24T21:18:27.046Z,58.48
2019-03-24T21:20:55.291Z,58.20
2019-03-24T21:23:29.762Z,53.90
2019-03-24T21:25:56.865Z,55.73
2019-03-24T21:28:23.930Z,61.15
2019-03-24T21:30:50.969Z,60.20
2019-03-24T21:33:18.287Z,64.87
2019-03-24T21:35:45.760Z,63.55
2019-03-24T21:38:13.099Z,58.87
2019-03-24T21:40:40.139Z,72.08
2019-03-24T21:43:07.506Z,58.87
2019-03-24T21:45:34.860Z,55.70
2019-03-24T21:48:01.919Z,53.87
2019-03-24T21:50:28.968Z,53.50
2019-03-24T21:52:56.306Z,62.80
2019-03-24T21:55:23.354Z,53.63
2019-03-24T21:57:57.383Z,53.02
2019-03-24T22:00:20.124Z,53.95
2019-03-24T22:02:47.595Z,54.25
2019-03-24T22:05:14.929Z,50.38
2019-03-24T22:07:42.056Z,48.25
2019-03-24T22:10:09.435Z,53.98
2019-03-24T22:12:36.802Z,49.58
2019-03-24T22:15:03.848Z,47.03
2019-03-24T22:17:30.905Z,51.58
2019-03-24T22:19:58.190Z,52.73
2019-03-24T22:22:25.594Z,52.88
2019-03-24T22:24:53.364Z,48.50
2019-03-24T22:27:20.737Z,50.98
2019-03-24T22:29:47.792Z,52.93
2019-03-24T22:32:14.837Z,46.55
2019-03-24T22:34:41.891Z,50.05
2019-03-24T22:37:15.858Z,51.40
2019-03-24T22:39:38.227Z,53.13
2019-03-24T22:42:05.510Z,48.35
2019-03-24T22:44:32.842Z,53.55
2019-03-24T22:47:00.179Z,48.78
2019-03-24T22:49:27.541Z,49.00
2019-03-24T22:52:06.578Z,49.50
2019-03-24T22:54:23.974Z,49.85
2019-03-24T22:56:51.113Z,46.48
2019-03-24T22:59:18.154Z,52.17
2019-03-24T23:01:45.526Z,49.63
2019-03-24T23:04:12.889Z,46.28
2019-03-24T23:06:40.241Z,46.60
2019-03-24T23:09:07.617Z,43.38
2019-03-24T23:11:36.116Z,48.13
2019-03-24T23:14:03.450Z,45.95
2019-03-24T23:16:30.490Z,50.83
2019-03-24T23:18:57.837Z,44.85
2019-03-24T23:21:25.193Z,46.18
2019-03-24T23:23:52.500Z,47.15
2019-03-24T23:26:19.539Z,44.38
2019-03-24T23:28:46.949Z,51.25
2019-03-24T23:31:14.305Z,46.63
2019-03-24T23:33:41.675Z,53.92
2019-03-24T23:36:08.723Z,47.43
2019-03-24T23:38:35.780Z,48.52
2019-03-24T23:41:02.895Z,45.43
2019-03-24T23:43:30.258Z,42.83
2019-03-24T23:45:57.366Z,48.52
2019-03-24T23:48:24.769Z,48.95
2019-03-24T23:50:52.125Z,48.83
2019-03-24T23:53:19.485Z,48.05
2019-03-24T23:55:46.827Z,48.00
2019-03-24T23:58:14.212Z,50.25
